sensor_id;sensor_type;location;lat;lon;timestamp;pressure;altitude;pressure_sealevel;temperature;humidity
43818;BME280;29868;47.360;18.984;2023-01-13T00:00:43;100757.69;;;-1.03;100.00
43818;BME280;29868;47.360;18.984;2023-01-13T00:03:09;100761.13;;;-1.02;100.00
43818;BME280;29868;47.360;18.984;2023-01-13T00:05:35;100763.56;;;-1.04;100.00
43818;BME280;29868;47.360;18.984;2023-01-13T00:08:01;100758.25;;;-1.07;100.00
43818;BME280;29868;47.360;18.984;2023-01-13T00:10:29;100758.59;;;-1.02;100.00
43818;BME280;29868;47.360;18.984;2023-01-13T00:12:54;100748.75;;;-1.09;100.00
43818;BME280;29868;47.360;18.984;2023-01-13T00:15:19;100755.75;;;-1.18;100.00
43818;BME280;29868;47.360;18.984;2023-01-13T00:17:45;100752.81;;;-1.25;100.00
43818;BME280;29868;47.360;18.984;2023-01-13T00:20:12;100756.31;;;-1.23;100.00
43818;BME280;29868;47.360;18.984;2023-01-13T00:22:37;100746.19;;;-1.09;100.00
43818;BME280;29868;47.360;18.984;2023-01-13T00:25:03;100746.88;;;-1.12;100.00
43818;BME280;29868;47.360;18.984;2023-01-13T00:27:29;100744.59;;;-1.20;100.00
43818;BME280;29868;47.360;18.984;2023-01-13T00:29:54;100737.91;;;-1.18;100.00
43818;BME280;29868;47.360;18.984;2023-01-13T00:32:20;100744.25;;;-1.25;100.00
43818;BME280;29868;47.360;18.984;2023-01-13T00:34:45;100741.59;;;-1.27;100.00
43818;BME280;29868;47.360;18.984;2023-01-13T00:37:10;100746.16;;;-1.34;100.00
43818;BME280;29868;47.360;18.984;2023-01-13T00:39:39;100751.19;;;-1.36;100.00
43818;BME280;29868;47.360;18.984;2023-01-13T00:42:05;100747.63;;;-1.38;100.00
43818;BME280;29868;47.360;18.984;2023-01-13T00:44:49;100747.84;;;-1.35;100.00
43818;BME280;29868;47.360;18.984;2023-01-13T00:47:14;100743.28;;;-1.27;100.00
43818;BME280;29868;47.360;18.984;2023-01-13T00:49:40;100746.69;;;-1.27;100.00
43818;BME280;29868;47.360;18.984;2023-01-13T00:52:05;100742.44;;;-1.14;100.00
43818;BME280;29868;47.360;18.984;2023-01-13T00:54:30;100735.22;;;-1.08;100.00
43818;BME280;29868;47.360;18.984;2023-01-13T00:56:56;100737.19;;;-1.04;100.00
43818;BME280;29868;47.360;18.984;2023-01-13T00:59:21;100737.97;;;-1.05;100.00
43818;BME280;29868;47.360;18.984;2023-01-13T01:01:47;100729.38;;;-0.94;100.00
43818;BME280;29868;47.360;18.984;2023-01-13T01:04:12;100733.91;;;-0.90;100.00
43818;BME280;29868;47.360;18.984;2023-01-13T01:06:37;100738.00;;;-0.92;100.00
43818;BME280;29868;47.360;18.984;2023-01-13T01:09:04;100744.69;;;-0.94;100.00
43818;BME280;29868;47.360;18.984;2023-01-13T01:11:31;100733.34;;;-0.86;100.00
43818;BME280;29868;47.360;18.984;2023-01-13T01:14:00;100722.56;;;-0.82;100.00
43818;BME280;29868;47.360;18.984;2023-01-13T01:16:27;100717.06;;;-0.75;100.00
43818;BME280;29868;47.360;18.984;2023-01-13T01:18:54;100712.34;;;-0.68;100.00
43818;BME280;29868;47.360;18.984;2023-01-13T01:21:22;100714.75;;;-0.71;100.00
43818;BME280;29868;47.360;18.984;2023-01-13T01:23:49;100714.38;;;-0.51;100.00
43818;BME280;29868;47.360;18.984;2023-01-13T01:26:24;100715.63;;;-0.58;100.00
43818;BME280;29868;47.360;18.984;2023-01-13T01:28:51;100722.59;;;-0.55;100.00
43818;BME280;29868;47.360;18.984;2023-01-13T01:31:19;100709.44;;;-0.61;100.00
43818;BME280;29868;47.360;18.984;2023-01-13T01:33:45;100716.31;;;-0.60;100.00
43818;BME280;29868;47.360;18.984;2023-01-13T01:36:16;100708.88;;;-0.44;100.00
43818;BME280;29868;47.360;18.984;2023-01-13T01:38:42;100700.22;;;-0.46;100.00
43818;BME280;29868;47.360;18.984;2023-01-13T01:41:10;100702.69;;;-0.47;100.00
43818;BME280;29868;47.360;18.984;2023-01-13T01:43:53;100697.19;;;-0.54;100.00
43818;BME280;29868;47.360;18.984;2023-01-13T01:49:04;100701.03;;;-0.34;100.00
43818;BME280;29868;47.360;18.984;2023-01-13T01:51:36;100694.16;;;-0.35;100.00
43818;BME280;29868;47.360;18.984;2023-01-13T01:54:04;100697.28;;;-0.39;100.00
43818;BME280;29868;47.360;18.984;2023-01-13T01:56:32;100697.09;;;-0.42;100.00
43818;BME280;29868;47.360;18.984;2023-01-13T01:58:58;100688.88;;;-0.38;100.00
43818;BME280;29868;47.360;18.984;2023-01-13T02:01:24;100685.41;;;-0.25;100.00
43818;BME280;29868;47.360;18.984;2023-01-13T02:04:00;100682.38;;;-0.33;100.00
43818;BME280;29868;47.360;18.984;2023-01-13T02:06:29;100680.00;;;-0.43;100.00
43818;BME280;29868;47.360;18.984;2023-01-13T02:08:56;100683.06;;;-0.35;100.00
43818;BME280;29868;47.360;18.984;2023-01-13T02:11:34;100677.28;;;-0.33;100.00
43818;BME280;29868;47.360;18.984;2023-01-13T02:14:24;100672.97;;;-0.34;100.00
43818;BME280;29868;47.360;18.984;2023-01-13T02:31:06;100671.72;;;0.14;100.00
43818;BME280;29868;47.360;18.984;2023-01-13T02:34:07;100670.41;;;-0.07;100.00
43818;BME280;29868;47.360;18.984;2023-01-13T02:37:16;100669.09;;;-0.01;100.00
43818;BME280;29868;47.360;18.984;2023-01-13T02:39:59;100677.66;;;-0.13;100.00
43818;BME280;29868;47.360;18.984;2023-01-13T02:42:32;100680.09;;;-0.02;100.00
43818;BME280;29868;47.360;18.984;2023-01-13T02:45:25;100672.09;;;0.20;100.00
43818;BME280;29868;47.360;18.984;2023-01-13T02:47:55;100670.97;;;0.02;100.00
43818;BME280;29868;47.360;18.984;2023-01-13T02:50:26;100662.91;;;-0.04;100.00
43818;BME280;29868;47.360;18.984;2023-01-13T02:53:00;100663.09;;;-0.01;100.00
43818;BME280;29868;47.360;18.984;2023-01-13T02:55:36;100660.66;;;0.01;100.00
43818;BME280;29868;47.360;18.984;2023-01-13T02:58:05;100662.63;;;0.05;100.00
43818;BME280;29868;47.360;18.984;2023-01-13T03:00:34;100656.91;;;0.09;100.00
43818;BME280;29868;47.360;18.984;2023-01-13T03:03:00;100650.88;;;0.21;100.00
43818;BME280;29868;47.360;18.984;2023-01-13T03:05:29;100661.41;;;0.13;100.00
43818;BME280;29868;47.360;18.984;2023-01-13T03:10:48;100659.13;;;0.17;100.00
43818;BME280;29868;47.360;18.984;2023-01-13T03:16:28;100650.84;;;0.35;100.00
43818;BME280;29868;47.360;18.984;2023-01-13T03:19:34;100645.91;;;0.38;100.00
43818;BME280;29868;47.360;18.984;2023-01-13T03:25:10;100645.13;;;0.39;100.00
43818;BME280;29868;47.360;18.984;2023-01-13T03:30:22;100634.38;;;0.44;100.00
43818;BME280;29868;47.360;18.984;2023-01-13T03:32:57;100632.34;;;0.39;100.00
43818;BME280;29868;47.360;18.984;2023-01-13T03:35:31;100630.56;;;0.38;100.00
43818;BME280;29868;47.360;18.984;2023-01-13T03:38:07;100644.13;;;0.37;100.00
43818;BME280;29868;47.360;18.984;2023-01-13T03:40:40;100630.44;;;0.64;100.00
43818;BME280;29868;47.360;18.984;2023-01-13T03:43:12;100636.47;;;0.65;100.00
43818;BME280;29868;47.360;18.984;2023-01-13T03:46:02;100639.75;;;0.49;100.00
43818;BME280;29868;47.360;18.984;2023-01-13T03:48:30;100624.81;;;0.55;100.00
43818;BME280;29868;47.360;18.984;2023-01-13T03:51:05;100620.69;;;0.57;100.00
43818;BME280;29868;47.360;18.984;2023-01-13T03:53:36;100622.06;;;0.52;100.00
43818;BME280;29868;47.360;18.984;2023-01-13T03:56:11;100633.09;;;0.51;100.00
43818;BME280;29868;47.360;18.984;2023-01-13T03:58:42;100624.44;;;0.49;100.00
43818;BME280;29868;47.360;18.984;2023-01-13T04:01:28;100628.59;;;0.47;100.00
43818;BME280;29868;47.360;18.984;2023-01-13T04:03:59;100629.53;;;0.49;100.00
43818;BME280;29868;47.360;18.984;2023-01-13T04:14:25;100634.19;;;0.69;100.00
43818;BME280;29868;47.360;18.984;2023-01-13T04:16:52;100628.28;;;0.70;100.00
43818;BME280;29868;47.360;18.984;2023-01-13T04:19:17;100640.94;;;0.54;100.00
43818;BME280;29868;47.360;18.984;2023-01-13T04:21:43;100638.00;;;0.48;100.00
43818;BME280;29868;47.360;18.984;2023-01-13T04:24:08;100630.16;;;0.45;100.00
43818;BME280;29868;47.360;18.984;2023-01-13T04:26:34;100630.25;;;0.46;100.00
43818;BME280;29868;47.360;18.984;2023-01-13T04:28:59;100642.03;;;0.44;100.00
43818;BME280;29868;47.360;18.984;2023-01-13T04:31:24;100638.69;;;0.45;100.00
43818;BME280;29868;47.360;18.984;2023-01-13T04:33:50;100644.66;;;0.59;100.00
43818;BME280;29868;47.360;18.984;2023-01-13T04:36:15;100639.88;;;0.51;100.00
43818;BME280;29868;47.360;18.984;2023-01-13T04:38:41;100643.91;;;0.47;100.00
43818;BME280;29868;47.360;18.984;2023-01-13T04:41:06;100640.75;;;0.51;100.00
43818;BME280;29868;47.360;18.984;2023-01-13T04:43:31;100637.81;;;0.45;100.00
43818;BME280;29868;47.360;18.984;2023-01-13T04:45:57;100635.25;;;0.45;100.00
43818;BME280;29868;47.360;18.984;2023-01-13T04:48:22;100629.19;;;0.43;100.00
43818;BME280;29868;47.360;18.984;2023-01-13T04:50:48;100632.53;;;0.42;100.00
43818;BME280;29868;47.360;18.984;2023-01-13T04:53:13;100638.16;;;0.36;100.00
43818;BME280;29868;47.360;18.984;2023-01-13T04:55:38;100645.03;;;0.37;100.00
43818;BME280;29868;47.360;18.984;2023-01-13T04:58:05;100646.41;;;0.32;100.00
43818;BME280;29868;47.360;18.984;2023-01-13T05:00:31;100637.75;;;0.30;100.00
43818;BME280;29868;47.360;18.984;2023-01-13T05:02:57;100646.41;;;0.32;100.00
43818;BME280;29868;47.360;18.984;2023-01-13T05:05:24;100640.25;;;0.29;100.00
43818;BME280;29868;47.360;18.984;2023-01-13T05:07:50;100631.13;;;0.47;100.00
43818;BME280;29868;47.360;18.984;2023-01-13T05:10:16;100633.50;;;0.44;100.00
43818;BME280;29868;47.360;18.984;2023-01-13T05:12:41;100636.88;;;0.30;100.00
43818;BME280;29868;47.360;18.984;2023-01-13T05:15:25;100645.94;;;0.24;100.00
43818;BME280;29868;47.360;18.984;2023-01-13T05:18:09;100655.91;;;0.20;100.00
43818;BME280;29868;47.360;18.984;2023-01-13T05:20:35;100651.38;;;0.16;100.00
43818;BME280;29868;47.360;18.984;2023-01-13T05:23:00;100658.94;;;0.14;100.00
43818;BME280;29868;47.360;18.984;2023-01-13T05:25:46;100659.53;;;0.10;100.00
43818;BME280;29868;47.360;18.984;2023-01-13T05:28:11;100676.47;;;0.08;100.00
43818;BME280;29868;47.360;18.984;2023-01-13T05:30:40;100666.53;;;0.13;100.00
43818;BME280;29868;47.360;18.984;2023-01-13T05:33:13;100672.44;;;0.12;100.00
43818;BME280;29868;47.360;18.984;2023-01-13T05:35:40;100664.66;;;0.10;100.00
43818;BME280;29868;47.360;18.984;2023-01-13T05:38:06;100664.63;;;0.23;100.00
43818;BME280;29868;47.360;18.984;2023-01-13T05:40:32;100662.97;;;0.11;100.00
43818;BME280;29868;47.360;18.984;2023-01-13T05:43:18;100666.25;;;-0.05;100.00
43818;BME280;29868;47.360;18.984;2023-01-13T05:46:05;100679.69;;;-0.08;100.00
43818;BME280;29868;47.360;18.984;2023-01-13T05:48:36;100676.84;;;-0.12;100.00
43818;BME280;29868;47.360;18.984;2023-01-13T05:51:03;100678.53;;;-0.13;100.00
43818;BME280;29868;47.360;18.984;2023-01-13T05:53:30;100677.25;;;-0.06;100.00
43818;BME280;29868;47.360;18.984;2023-01-13T05:55:56;100663.13;;;-0.14;100.00
43818;BME280;29868;47.360;18.984;2023-01-13T05:58:23;100667.34;;;-0.15;100.00
43818;BME280;29868;47.360;18.984;2023-01-13T06:00:49;100663.13;;;-0.14;100.00
43818;BME280;29868;47.360;18.984;2023-01-13T06:03:16;100666.56;;;-0.14;100.00
43818;BME280;29868;47.360;18.984;2023-01-13T06:05:44;100660.38;;;-0.17;100.00
43818;BME280;29868;47.360;18.984;2023-01-13T06:08:10;100669.88;;;-0.02;100.00
43818;BME280;29868;47.360;18.984;2023-01-13T06:10:35;100671.28;;;-0.07;100.00
43818;BME280;29868;47.360;18.984;2023-01-13T06:13:01;100661.81;;;0.06;100.00
43818;BME280;29868;47.360;18.984;2023-01-13T06:15:27;100661.50;;;0.14;100.00
43818;BME280;29868;47.360;18.984;2023-01-13T06:17:52;100661.78;;;0.19;100.00
43818;BME280;29868;47.360;18.984;2023-01-13T06:20:18;100666.31;;;0.23;100.00
43818;BME280;29868;47.360;18.984;2023-01-13T06:22:48;100661.66;;;0.31;100.00
43818;BME280;29868;47.360;18.984;2023-01-13T06:25:28;100663.09;;;0.40;100.00
43818;BME280;29868;47.360;18.984;2023-01-13T06:27:56;100657.38;;;0.44;100.00
43818;BME280;29868;47.360;18.984;2023-01-13T06:30:24;100660.59;;;0.55;100.00
43818;BME280;29868;47.360;18.984;2023-01-13T06:32:54;100667.19;;;0.52;100.00
43818;BME280;29868;47.360;18.984;2023-01-13T06:35:25;100674.25;;;0.56;100.00
43818;BME280;29868;47.360;18.984;2023-01-13T06:37:54;100659.91;;;0.58;100.00
43818;BME280;29868;47.360;18.984;2023-01-13T06:40:21;100673.19;;;0.52;100.00
43818;BME280;29868;47.360;18.984;2023-01-13T06:42:47;100669.06;;;0.54;100.00
43818;BME280;29868;47.360;18.984;2023-01-13T06:45:31;100675.25;;;0.58;100.00
43818;BME280;29868;47.360;18.984;2023-01-13T06:47:57;100669.25;;;0.57;100.00
43818;BME280;29868;47.360;18.984;2023-01-13T06:50:24;100673.75;;;0.61;100.00
43818;BME280;29868;47.360;18.984;2023-01-13T06:52:49;100673.84;;;0.63;100.00
43818;BME280;29868;47.360;18.984;2023-01-13T06:55:15;100678.44;;;0.68;100.00
43818;BME280;29868;47.360;18.984;2023-01-13T07:00:16;100678.09;;;0.77;100.00
43818;BME280;29868;47.360;18.984;2023-01-13T07:02:41;100674.06;;;0.81;100.00
43818;BME280;29868;47.360;18.984;2023-01-13T07:05:07;100675.00;;;0.83;100.00
43818;BME280;29868;47.360;18.984;2023-01-13T07:07:32;100676.88;;;0.85;100.00
43818;BME280;29868;47.360;18.984;2023-01-13T07:09:58;100680.69;;;0.92;100.00
43818;BME280;29868;47.360;18.984;2023-01-13T07:12:24;100678.47;;;0.98;100.00
43818;BME280;29868;47.360;18.984;2023-01-13T07:14:49;100676.38;;;1.06;100.00
43818;BME280;29868;47.360;18.984;2023-01-13T07:17:33;100681.69;;;1.24;100.00
43818;BME280;29868;47.360;18.984;2023-01-13T07:19:58;100685.56;;;1.32;100.00
43818;BME280;29868;47.360;18.984;2023-01-13T07:22:24;100680.44;;;1.46;100.00
43818;BME280;29868;47.360;18.984;2023-01-13T07:24:49;100672.38;;;1.70;100.00
43818;BME280;29868;47.360;18.984;2023-01-13T07:27:15;100675.03;;;1.72;100.00
43818;BME280;29868;47.360;18.984;2023-01-13T07:29:40;100676.16;;;1.77;100.00
43818;BME280;29868;47.360;18.984;2023-01-13T07:32:06;100680.34;;;2.06;100.00
43818;BME280;29868;47.360;18.984;2023-01-13T07:34:32;100673.53;;;2.06;100.00
43818;BME280;29868;47.360;18.984;2023-01-13T07:36:57;100672.38;;;2.16;100.00
43818;BME280;29868;47.360;18.984;2023-01-13T07:39:23;100680.47;;;2.24;100.00
43818;BME280;29868;47.360;18.984;2023-01-13T07:41:48;100680.78;;;2.30;100.00
43818;BME280;29868;47.360;18.984;2023-01-13T07:44:32;100685.91;;;2.30;100.00
43818;BME280;29868;47.360;18.984;2023-01-13T07:46:57;100686.56;;;2.42;100.00
43818;BME280;29868;47.360;18.984;2023-01-13T07:49:23;100695.06;;;2.57;100.00
43818;BME280;29868;47.360;18.984;2023-01-13T07:51:48;100689.44;;;2.64;100.00
43818;BME280;29868;47.360;18.984;2023-01-13T07:54:14;100690.97;;;2.61;100.00
43818;BME280;29868;47.360;18.984;2023-01-13T07:56:39;100698.44;;;2.73;100.00
43818;BME280;29868;47.360;18.984;2023-01-13T07:59:04;100704.19;;;2.68;100.00
43818;BME280;29868;47.360;18.984;2023-01-13T08:01:30;100705.19;;;2.71;100.00
43818;BME280;29868;47.360;18.984;2023-01-13T08:03:56;100713.50;;;2.83;100.00
43818;BME280;29868;47.360;18.984;2023-01-13T08:06:23;100705.56;;;2.78;100.00
43818;BME280;29868;47.360;18.984;2023-01-13T08:08:49;100706.78;;;2.85;100.00
43818;BME280;29868;47.360;18.984;2023-01-13T08:11:15;100713.81;;;2.73;100.00
43818;BME280;29868;47.360;18.984;2023-01-13T08:13:41;100720.00;;;2.76;100.00
43818;BME280;29868;47.360;18.984;2023-01-13T08:16:09;100714.56;;;2.70;100.00
43818;BME280;29868;47.360;18.984;2023-01-13T08:18:35;100721.91;;;2.80;100.00
43818;BME280;29868;47.360;18.984;2023-01-13T08:21:04;100732.69;;;2.89;100.00
43818;BME280;29868;47.360;18.984;2023-01-13T08:23:30;100735.66;;;2.97;100.00
43818;BME280;29868;47.360;18.984;2023-01-13T08:25:59;100725.06;;;2.75;100.00
43818;BME280;29868;47.360;18.984;2023-01-13T08:28:26;100726.34;;;2.83;100.00
43818;BME280;29868;47.360;18.984;2023-01-13T08:30:51;100728.19;;;2.85;100.00
43818;BME280;29868;47.360;18.984;2023-01-13T08:33:18;100723.13;;;2.71;100.00
43818;BME280;29868;47.360;18.984;2023-01-13T08:35:43;100731.94;;;2.59;100.00
43818;BME280;29868;47.360;18.984;2023-01-13T08:38:09;100737.53;;;2.52;100.00
43818;BME280;29868;47.360;18.984;2023-01-13T08:40:35;100732.59;;;2.72;100.00
43818;BME280;29868;47.360;18.984;2023-01-13T08:43:01;100737.66;;;2.70;100.00
43818;BME280;29868;47.360;18.984;2023-01-13T08:45:26;100752.63;;;2.79;100.00
43818;BME280;29868;47.360;18.984;2023-01-13T08:47:52;100749.72;;;2.73;100.00
43818;BME280;29868;47.360;18.984;2023-01-13T08:50:18;100749.59;;;2.86;100.00
43818;BME280;29868;47.360;18.984;2023-01-13T08:52:43;100748.63;;;2.84;100.00
43818;BME280;29868;47.360;18.984;2023-01-13T08:55:10;100749.44;;;2.83;100.00
43818;BME280;29868;47.360;18.984;2023-01-13T08:57:36;100750.56;;;2.88;100.00
43818;BME280;29868;47.360;18.984;2023-01-13T09:00:04;100762.34;;;2.84;100.00
43818;BME280;29868;47.360;18.984;2023-01-13T09:02:30;100760.97;;;2.75;100.00
43818;BME280;29868;47.360;18.984;2023-01-13T09:04:55;100766.75;;;2.71;100.00
43818;BME280;29868;47.360;18.984;2023-01-13T09:07:21;100758.22;;;2.55;100.00
43818;BME280;29868;47.360;18.984;2023-01-13T09:09:46;100759.66;;;2.50;100.00
43818;BME280;29868;47.360;18.984;2023-01-13T09:12:14;100751.34;;;2.54;100.00
43818;BME280;29868;47.360;18.984;2023-01-13T09:14:59;100752.44;;;2.43;100.00
43818;BME280;29868;47.360;18.984;2023-01-13T09:17:24;100757.41;;;2.40;100.00
43818;BME280;29868;47.360;18.984;2023-01-13T09:19:50;100751.84;;;2.32;100.00
43818;BME280;29868;47.360;18.984;2023-01-13T09:22:17;100745.75;;;2.30;100.00
43818;BME280;29868;47.360;18.984;2023-01-13T09:24:43;100752.25;;;2.40;100.00
43818;BME280;29868;47.360;18.984;2023-01-13T09:27:10;100740.84;;;2.35;100.00
43818;BME280;29868;47.360;18.984;2023-01-13T09:29:36;100736.88;;;2.40;100.00
43818;BME280;29868;47.360;18.984;2023-01-13T09:32:03;100740.03;;;2.51;100.00
43818;BME280;29868;47.360;18.984;2023-01-13T09:34:28;100739.63;;;2.43;100.00
43818;BME280;29868;47.360;18.984;2023-01-13T09:37:12;100741.09;;;2.71;100.00
43818;BME280;29868;47.360;18.984;2023-01-13T09:39:37;100738.59;;;2.72;100.00
43818;BME280;29868;47.360;18.984;2023-01-13T09:42:15;100734.84;;;2.82;100.00
43818;BME280;29868;47.360;18.984;2023-01-13T09:45:07;100737.53;;;2.68;100.00
43818;BME280;29868;47.360;18.984;2023-01-13T09:52:40;100727.31;;;2.85;100.00
43818;BME280;29868;47.360;18.984;2023-01-13T09:57:40;100728.09;;;3.00;100.00
43818;BME280;29868;47.360;18.984;2023-01-13T10:00:28;100730.44;;;2.96;100.00
43818;BME280;29868;47.360;18.984;2023-01-13T10:05:43;100722.16;;;3.01;100.00
43818;BME280;29868;47.360;18.984;2023-01-13T10:08:16;100729.28;;;3.07;100.00
43818;BME280;29868;47.360;18.984;2023-01-13T10:10:48;100729.72;;;3.14;100.00
43818;BME280;29868;47.360;18.984;2023-01-13T10:13:26;100725.84;;;3.06;100.00
43818;BME280;29868;47.360;18.984;2023-01-13T10:29:23;100728.03;;;3.67;100.00
43818;BME280;29868;47.360;18.984;2023-01-13T10:31:50;100725.59;;;3.52;100.00
43818;BME280;29868;47.360;18.984;2023-01-13T10:34:16;100721.25;;;3.51;100.00
43818;BME280;29868;47.360;18.984;2023-01-13T10:37:03;100731.16;;;3.44;100.00
43818;BME280;29868;47.360;18.984;2023-01-13T10:39:46;100732.41;;;3.34;100.00
43818;BME280;29868;47.360;18.984;2023-01-13T10:42:17;100734.03;;;3.50;100.00
43818;BME280;29868;47.360;18.984;2023-01-13T10:44:55;100729.97;;;3.89;100.00
43818;BME280;29868;47.360;18.984;2023-01-13T10:52:38;100710.94;;;4.21;100.00
43818;BME280;29868;47.360;18.984;2023-01-13T10:55:30;100703.91;;;3.99;100.00
43818;BME280;29868;47.360;18.984;2023-01-13T10:58:10;100694.56;;;4.19;100.00
43818;BME280;29868;47.360;18.984;2023-01-13T11:00:37;100687.81;;;4.21;100.00
43818;BME280;29868;47.360;18.984;2023-01-13T11:03:21;100684.38;;;4.40;100.00
43818;BME280;29868;47.360;18.984;2023-01-13T11:05:55;100684.09;;;4.34;100.00
43818;BME280;29868;47.360;18.984;2023-01-13T11:08:27;100673.94;;;4.37;100.00
43818;BME280;29868;47.360;18.984;2023-01-13T11:10:55;100669.88;;;4.23;100.00
43818;BME280;29868;47.360;18.984;2023-01-13T11:13:32;100671.22;;;4.14;100.00
43818;BME280;29868;47.360;18.984;2023-01-13T11:16:05;100667.41;;;4.44;100.00
43818;BME280;29868;47.360;18.984;2023-01-13T11:18:50;100659.41;;;4.37;100.00
43818;BME280;29868;47.360;18.984;2023-01-13T11:24:39;100654.03;;;4.13;100.00
43818;BME280;29868;47.360;18.984;2023-01-13T11:30:04;100651.38;;;4.12;100.00
43818;BME280;29868;47.360;18.984;2023-01-13T11:32:46;100652.00;;;4.26;100.00
43818;BME280;29868;47.360;18.984;2023-01-13T11:35:17;100649.94;;;3.99;100.00
43818;BME280;29868;47.360;18.984;2023-01-13T11:37:48;100642.44;;;3.86;100.00
43818;BME280;29868;47.360;18.984;2023-01-13T11:40:33;100644.63;;;3.96;100.00
43818;BME280;29868;47.360;18.984;2023-01-13T11:43:07;100642.97;;;4.16;100.00
43818;BME280;29868;47.360;18.984;2023-01-13T11:45:40;100640.75;;;4.24;100.00
43818;BME280;29868;47.360;18.984;2023-01-13T11:48:15;100635.38;;;4.37;100.00
43818;BME280;29868;47.360;18.984;2023-01-13T11:50:53;100638.34;;;4.46;100.00
43818;BME280;29868;47.360;18.984;2023-01-13T12:07:08;100601.50;;;4.28;100.00
43818;BME280;29868;47.360;18.984;2023-01-13T12:23:25;100564.84;;;4.51;100.00
43818;BME280;29868;47.360;18.984;2023-01-13T12:25:57;100566.19;;;4.62;100.00
43818;BME280;29868;47.360;18.984;2023-01-13T12:28:29;100560.44;;;4.49;100.00
43818;BME280;29868;47.360;18.984;2023-01-13T12:31:01;100560.81;;;4.58;100.00
43818;BME280;29868;47.360;18.984;2023-01-13T12:36:31;100546.63;;;4.66;100.00
43818;BME280;29868;47.360;18.984;2023-01-13T12:42:19;100559.50;;;4.87;100.00
43818;BME280;29868;47.360;18.984;2023-01-13T12:47:39;100568.13;;;4.68;100.00
43818;BME280;29868;47.360;18.984;2023-01-13T12:53:25;100555.59;;;4.76;100.00
43818;BME280;29868;47.360;18.984;2023-01-13T12:55:50;100551.75;;;4.87;100.00
43818;BME280;29868;47.360;18.984;2023-01-13T12:58:16;100552.31;;;4.80;100.00
43818;BME280;29868;47.360;18.984;2023-01-13T13:11:17;100548.91;;;5.00;100.00
43818;BME280;29868;47.360;18.984;2023-01-13T13:14:12;100546.56;;;5.06;100.00
43818;BME280;29868;47.360;18.984;2023-01-13T13:16:51;100554.41;;;5.09;100.00
43818;BME280;29868;47.360;18.984;2023-01-13T13:30:07;100551.53;;;5.23;100.00
43818;BME280;29868;47.360;18.984;2023-01-13T13:35:16;100565.88;;;5.18;100.00
43818;BME280;29868;47.360;18.984;2023-01-13T13:40:42;100560.91;;;5.22;100.00
43818;BME280;29868;47.360;18.984;2023-01-13T13:43:30;100568.03;;;5.28;100.00
43818;BME280;29868;47.360;18.984;2023-01-13T13:46:25;100560.31;;;5.28;100.00
43818;BME280;29868;47.360;18.984;2023-01-13T13:49:10;100563.00;;;5.31;100.00
43818;BME280;29868;47.360;18.984;2023-01-13T13:51:40;100562.75;;;5.25;100.00
43818;BME280;29868;47.360;18.984;2023-01-13T13:54:12;100572.34;;;5.29;100.00
43818;BME280;29868;47.360;18.984;2023-01-13T13:56:42;100565.00;;;5.17;100.00
43818;BME280;29868;47.360;18.984;2023-01-13T13:59:14;100554.66;;;5.16;100.00
43818;BME280;29868;47.360;18.984;2023-01-13T14:01:43;100564.28;;;5.20;100.00
43818;BME280;29868;47.360;18.984;2023-01-13T14:04:22;100569.03;;;5.10;100.00
43818;BME280;29868;47.360;18.984;2023-01-13T14:06:57;100565.53;;;5.08;100.00
43818;BME280;29868;47.360;18.984;2023-01-13T14:09:25;100563.81;;;4.88;100.00
43818;BME280;29868;47.360;18.984;2023-01-13T14:12:04;100579.81;;;4.81;100.00
43818;BME280;29868;47.360;18.984;2023-01-13T14:14:30;100577.50;;;4.87;100.00
43818;BME280;29868;47.360;18.984;2023-01-13T14:16:56;100585.53;;;4.95;100.00
43818;BME280;29868;47.360;18.984;2023-01-13T14:19:31;100579.25;;;4.88;100.00
43818;BME280;29868;47.360;18.984;2023-01-13T14:21:59;100579.53;;;4.94;100.00
43818;BME280;29868;47.360;18.984;2023-01-13T14:24:25;100581.91;;;4.90;100.00
43818;BME280;29868;47.360;18.984;2023-01-13T14:26:51;100586.59;;;4.79;100.00
43818;BME280;29868;47.360;18.984;2023-01-13T14:29:26;100586.97;;;4.88;100.00
43818;BME280;29868;47.360;18.984;2023-01-13T14:31:53;100589.13;;;4.77;100.00
43818;BME280;29868;47.360;18.984;2023-01-13T14:34:20;100593.59;;;4.81;100.00
43818;BME280;29868;47.360;18.984;2023-01-13T14:36:47;100595.69;;;4.71;100.00
43818;BME280;29868;47.360;18.984;2023-01-13T14:44:27;100595.72;;;4.51;100.00
43818;BME280;29868;47.360;18.984;2023-01-13T14:46:56;100592.47;;;4.55;100.00
43818;BME280;29868;47.360;18.984;2023-01-13T14:52:02;100597.38;;;4.51;100.00
43818;BME280;29868;47.360;18.984;2023-01-13T14:54:51;100590.16;;;4.42;100.00
43818;BME280;29868;47.360;18.984;2023-01-13T14:57:27;100593.16;;;4.32;100.00
43818;BME280;29868;47.360;18.984;2023-01-13T15:02:36;100597.03;;;4.43;100.00
43818;BME280;29868;47.360;18.984;2023-01-13T15:05:30;100594.81;;;4.31;100.00
43818;BME280;29868;47.360;18.984;2023-01-13T15:08:00;100595.84;;;4.35;100.00
43818;BME280;29868;47.360;18.984;2023-01-13T15:10:28;100593.41;;;4.38;100.00
43818;BME280;29868;47.360;18.984;2023-01-13T15:12:57;100588.25;;;4.38;100.00
43818;BME280;29868;47.360;18.984;2023-01-13T15:15:37;100586.22;;;4.31;100.00
43818;BME280;29868;47.360;18.984;2023-01-13T15:18:14;100577.34;;;4.24;100.00
43818;BME280;29868;47.360;18.984;2023-01-13T15:20:41;100583.66;;;4.31;100.00
43818;BME280;29868;47.360;18.984;2023-01-13T15:23:07;100581.84;;;4.28;100.00
43818;BME280;29868;47.360;18.984;2023-01-13T15:25:42;100577.16;;;4.20;100.00